createdAt,value
2022-12-08T00:00:54.352Z,88.42
2022-12-08T00:03:21.302Z,88.27
2022-12-08T00:06:07.786Z,88.53
2022-12-08T00:08:53.197Z,88.40
2022-12-08T00:11:20.248Z,88.64
2022-12-08T00:13:46.974Z,88.70
2022-12-08T00:16:16.185Z,88.75
2022-12-08T00:18:42.920Z,88.45
2022-12-08T00:21:09.609Z,88.35
2022-12-08T00:23:36.341Z,88.58
2022-12-08T00:26:06.457Z,88.67
2022-12-08T00:28:33.603Z,88.37
2022-12-08T00:31:00.844Z,88.36
2022-12-08T00:33:28.598Z,88.51
2022-12-08T00:35:55.477Z,88.33
2022-12-08T00:38:22.450Z,88.44
2022-12-08T00:40:49.157Z,88.49
2022-12-08T00:43:16.055Z,88.55
2022-12-08T00:45:43.155Z,88.28
2022-12-08T00:48:09.851Z,88.53
2022-12-08T00:50:39.042Z,88.35
2022-12-08T00:53:05.755Z,88.35
2022-12-08T00:55:32.417Z,88.30
2022-12-08T00:57:59.105Z,88.41
2022-12-08T01:00:25.860Z,88.49
2022-12-08T01:02:52.722Z,88.15
2022-12-08T01:05:19.468Z,88.45
2022-12-08T01:07:46.199Z,88.13
2022-12-08T01:10:12.931Z,88.11
2022-12-08T01:12:39.624Z,88.46
2022-12-08T01:15:06.805Z,88.08
2022-12-08T01:17:33.496Z,88.44
2022-12-08T01:20:02.457Z,88.26
2022-12-08T01:22:29.511Z,88.12
2022-12-08T01:24:56.284Z,88.18
2022-12-08T01:27:22.954Z,88.17
2022-12-08T01:29:49.712Z,88.22
2022-12-08T01:32:16.403Z,88.21
2022-12-08T01:34:43.111Z,88.08
2022-12-08T01:37:09.827Z,88.06
2022-12-08T01:39:36.552Z,88.04
2022-12-08T01:42:03.249Z,88.00
2022-12-08T01:44:29.888Z,88.06
2022-12-08T01:46:56.631Z,88.27
2022-12-08T01:49:27.364Z,87.90
2022-12-08T01:51:58.563Z,88.25
2022-12-08T01:54:28.804Z,88.25
2022-12-08T01:57:01.397Z,88.25
2022-12-08T01:59:29.435Z,88.28
2022-12-08T02:01:57.249Z,88.03
2022-12-08T02:04:23.977Z,88.26
2022-12-08T02:06:51.036Z,87.90
2022-12-08T02:09:19.367Z,87.97
2022-12-08T02:11:46.192Z,88.16
2022-12-08T02:14:13.848Z,87.97
2022-12-08T02:17:04.474Z,88.14
2022-12-08T02:20:09.035Z,88.06
2022-12-08T02:22:56.952Z,87.95
2022-12-08T02:25:26.718Z,87.94
2022-12-08T02:28:10.774Z,88.07
2022-12-08T02:30:59.306Z,88.22
2022-12-08T02:33:43.272Z,88.32
2022-12-08T02:36:16.461Z,88.16
2022-12-08T02:39:01.999Z,88.06
2022-12-08T02:41:32.323Z,88.25
2022-12-08T02:44:06.608Z,88.22
2022-12-08T02:46:40.165Z,88.29
2022-12-08T02:49:07.318Z,88.08
2022-12-08T02:51:34.045Z,87.99
2022-12-08T02:54:01.458Z,88.33
2022-12-08T02:56:55.908Z,87.98
2022-12-08T02:59:51.481Z,88.28
2022-12-08T03:02:44.110Z,87.99
2022-12-08T03:05:27.628Z,88.14
2022-12-08T03:08:18.124Z,87.99
2022-12-08T03:10:55.519Z,88.10
2022-12-08T03:13:45.275Z,88.03
2022-12-08T03:16:15.435Z,88.09
2022-12-08T03:18:47.263Z,88.32
2022-12-08T03:21:15.738Z,88.32
2022-12-08T03:23:44.948Z,88.13
2022-12-08T03:26:23.804Z,88.11
2022-12-08T03:28:50.600Z,88.05
2022-12-08T03:31:18.857Z,88.21
2022-12-08T03:33:51.133Z,88.06
2022-12-08T03:36:18.450Z,88.51
2022-12-08T03:38:46.195Z,88.17
2022-12-08T03:41:18.800Z,88.19
2022-12-08T03:43:50.718Z,88.52
2022-12-08T03:46:18.080Z,88.15
2022-12-08T03:48:44.942Z,88.22
2022-12-08T03:51:12.113Z,88.47
2022-12-08T03:53:39.075Z,88.61
2022-12-08T03:56:15.806Z,88.21
2022-12-08T03:58:43.256Z,88.21
2022-12-08T04:01:09.955Z,88.57
2022-12-08T04:03:36.907Z,88.58
2022-12-08T04:06:03.710Z,88.20
2022-12-08T04:08:30.440Z,88.42
2022-12-08T04:10:57.121Z,88.64
2022-12-08T04:13:23.967Z,88.53
2022-12-08T04:15:50.782Z,88.67
2022-12-08T04:18:17.792Z,88.58
2022-12-08T04:20:45.286Z,88.55
2022-12-08T04:23:12.513Z,88.40
2022-12-08T04:25:39.486Z,88.57
2022-12-08T04:28:07.104Z,88.76
2022-12-08T04:30:34.671Z,88.80
2022-12-08T04:33:01.350Z,88.70
2022-12-08T04:35:28.562Z,88.79
2022-12-08T04:37:55.223Z,88.44
2022-12-08T04:40:21.962Z,88.80
2022-12-08T04:42:48.633Z,88.64
2022-12-08T04:45:15.416Z,88.67
2022-12-08T04:47:42.929Z,88.79
2022-12-08T04:50:10.149Z,88.60
2022-12-08T04:52:37.076Z,89.03
2022-12-08T04:55:04.091Z,88.86
2022-12-08T04:57:30.739Z,88.69
2022-12-08T04:59:57.445Z,88.85
2022-12-08T05:02:24.162Z,88.72
2022-12-08T05:04:50.864Z,88.96
2022-12-08T05:07:17.539Z,88.66
2022-12-08T05:09:44.996Z,88.98
2022-12-08T05:12:14.270Z,89.07
2022-12-08T05:14:40.934Z,88.87
2022-12-08T05:17:10.116Z,88.92
2022-12-08T05:19:36.964Z,89.07
2022-12-08T05:22:03.646Z,88.92
2022-12-08T05:24:30.433Z,88.85
2022-12-08T05:26:57.263Z,89.01
2022-12-08T05:29:24.032Z,88.94
2022-12-08T05:31:50.880Z,89.00
2022-12-08T05:34:17.645Z,89.15
2022-12-08T05:36:44.311Z,88.88
2022-12-08T05:39:14.822Z,88.95
2022-12-08T05:41:41.888Z,88.96
2022-12-08T05:44:08.832Z,89.13
2022-12-08T05:46:36.068Z,89.37
2022-12-08T05:49:03.587Z,88.93
2022-12-08T05:51:30.702Z,89.05
2022-12-08T05:53:57.674Z,89.12
2022-12-08T05:56:24.911Z,89.00
2022-12-08T05:58:51.736Z,89.35
2022-12-08T06:01:30.222Z,89.39
2022-12-08T06:04:01.488Z,89.11
2022-12-08T06:06:29.046Z,89.18
2022-12-08T06:08:55.905Z,89.35
2022-12-08T06:11:28.491Z,89.17
2022-12-08T06:13:56.851Z,89.38
2022-12-08T06:16:26.244Z,89.36
2022-12-08T06:18:53.419Z,89.21
2022-12-08T06:21:20.616Z,89.40
2022-12-08T06:23:52.472Z,89.23
2022-12-08T06:26:19.570Z,89.21
2022-12-08T06:28:46.344Z,89.52
2022-12-08T06:31:22.399Z,89.67
2022-12-08T06:33:49.439Z,89.50
2022-12-08T06:36:17.857Z,89.49
2022-12-08T06:38:45.435Z,89.47
2022-12-08T06:41:12.532Z,89.34
2022-12-08T06:43:39.607Z,89.37
2022-12-08T06:46:07.886Z,89.66
2022-12-08T06:48:34.643Z,89.30
2022-12-08T06:51:08.314Z,89.63
2022-12-08T06:53:35.082Z,89.77
2022-12-08T06:56:02.015Z,89.40
2022-12-08T06:58:28.834Z,89.42
2022-12-08T07:00:55.671Z,89.47
2022-12-08T07:03:22.779Z,89.62
2022-12-08T07:05:49.470Z,89.52
2022-12-08T07:08:16.242Z,89.71
2022-12-08T07:10:43.033Z,89.64
2022-12-08T07:13:09.746Z,89.45
2022-12-08T07:15:36.594Z,89.57
2022-12-08T07:18:03.351Z,89.42
2022-12-08T07:20:30.074Z,89.70
2022-12-08T07:22:56.791Z,89.59
2022-12-08T07:25:23.653Z,89.65
2022-12-08T07:27:51.825Z,89.56
2022-12-08T07:30:18.789Z,89.70
2022-12-08T07:32:45.806Z,89.54
2022-12-08T07:35:12.719Z,89.75
2022-12-08T07:37:39.405Z,89.69
2022-12-08T07:40:08.633Z,89.66
2022-12-08T07:42:35.690Z,89.78
2022-12-08T07:45:02.552Z,89.36
2022-12-08T07:47:29.221Z,89.39
2022-12-08T07:49:56.110Z,89.70
2022-12-08T07:52:23.449Z,89.31
2022-12-08T07:54:50.220Z,89.62
2022-12-08T07:57:17.029Z,89.41
2022-12-08T07:59:43.695Z,89.38
2022-12-08T08:02:24.797Z,89.34
2022-12-08T08:04:53.289Z,89.55
2022-12-08T08:07:20.120Z,89.42
2022-12-08T08:09:46.850Z,89.36
2022-12-08T08:15:01.449Z,89.51
2022-12-08T08:17:29.630Z,89.37
2022-12-08T08:19:57.231Z,89.41
2022-12-08T08:22:25.119Z,89.45
2022-12-08T08:24:51.852Z,89.58
2022-12-08T08:27:18.548Z,89.46
2022-12-08T08:29:45.248Z,89.40
2022-12-08T08:32:12.196Z,89.56
2022-12-08T08:34:39.037Z,89.58
2022-12-08T08:37:05.852Z,89.16
2022-12-08T08:39:32.620Z,89.42
2022-12-08T08:41:59.444Z,89.25
2022-12-08T08:44:26.212Z,89.25
2022-12-08T08:46:53.033Z,89.20
2022-12-08T08:49:20.226Z,89.37
2022-12-08T08:51:47.104Z,88.98
2022-12-08T08:54:13.813Z,89.00
2022-12-08T08:56:40.485Z,89.36
2022-12-08T08:59:07.483Z,89.07
2022-12-08T09:01:34.342Z,89.15
2022-12-08T09:04:01.684Z,88.94
2022-12-08T09:06:28.711Z,89.07
2022-12-08T09:08:55.683Z,89.15
2022-12-08T09:11:23.611Z,88.74
2022-12-08T09:13:52.119Z,88.96
2022-12-08T09:16:19.436Z,88.76
2022-12-08T09:18:46.476Z,89.18
2022-12-08T09:21:16.630Z,88.91
2022-12-08T09:23:44.063Z,88.95
2022-12-08T09:26:10.851Z,88.82
2022-12-08T09:28:38.049Z,88.80
2022-12-08T09:31:07.045Z,89.07
2022-12-08T09:33:33.824Z,88.93
2022-12-08T09:36:04.094Z,88.90
2022-12-08T09:38:31.025Z,88.74
2022-12-08T09:40:58.541Z,88.85
2022-12-08T09:43:46.185Z,88.50
2022-12-08T09:46:15.030Z,88.74
2022-12-08T09:48:47.588Z,88.47
2022-12-08T09:51:15.276Z,88.81
2022-12-08T09:53:51.247Z,88.72
2022-12-08T09:56:23.147Z,88.80
2022-12-08T09:58:57.217Z,88.23
2022-12-08T10:01:28.416Z,88.63
2022-12-08T10:03:56.200Z,88.38
2022-12-08T10:06:42.159Z,88.43
2022-12-08T10:09:27.193Z,88.30
2022-12-08T10:12:01.055Z,88.09
2022-12-08T10:14:41.968Z,88.06
2022-12-08T10:17:16.568Z,87.86
2022-12-08T10:19:43.821Z,87.85
2022-12-08T10:22:25.348Z,87.89
2022-12-08T10:25:01.159Z,87.98
2022-12-08T10:27:28.032Z,87.91
2022-12-08T10:29:54.772Z,88.02
2022-12-08T10:32:25.214Z,88.09
2022-12-08T10:35:05.191Z,87.73
2022-12-08T10:37:32.005Z,87.98
2022-12-08T10:40:01.664Z,87.85
2022-12-08T10:42:41.273Z,88.04
2022-12-08T10:45:26.772Z,87.97
2022-12-08T10:48:00.264Z,87.86
2022-12-08T10:50:46.723Z,87.93
2022-12-08T10:53:25.475Z,87.85
2022-12-08T10:55:58.226Z,87.79
2022-12-08T10:58:36.296Z,88.13
2022-12-08T11:01:19.242Z,87.92
2022-12-08T11:03:50.298Z,87.99
2022-12-08T11:06:23.635Z,88.14
2022-12-08T11:08:53.364Z,88.19
2022-12-08T11:11:27.612Z,88.28
2022-12-08T11:13:56.618Z,88.16
2022-12-08T11:16:23.707Z,88.39
2022-12-08T11:18:57.645Z,88.11
2022-12-08T11:21:35.632Z,88.21
2022-12-08T11:24:22.873Z,88.00
2022-12-08T11:27:03.570Z,88.45
2022-12-08T11:29:32.299Z,88.05
2022-12-08T11:32:12.946Z,88.36
2022-12-08T11:34:53.689Z,88.17
2022-12-08T11:37:37.223Z,87.81
2022-12-08T11:40:28.869Z,88.11
2022-12-08T11:43:20.488Z,88.09
2022-12-08T11:45:50.559Z,88.15
2022-12-08T11:48:19.763Z,88.02
2022-12-08T11:50:53.596Z,88.11
2022-12-08T11:53:36.042Z,88.05
2022-12-08T11:56:10.595Z,88.19
2022-12-08T11:58:51.652Z,88.29
2022-12-08T12:01:23.974Z,88.23
2022-12-08T12:03:59.402Z,88.34
2022-12-08T12:06:58.592Z,88.12
2022-12-08T12:09:36.716Z,88.16
2022-12-08T12:12:21.510Z,88.49
2022-12-08T12:15:16.299Z,88.60
2022-12-08T12:17:59.869Z,88.50
2022-12-08T12:20:33.693Z,88.26
2022-12-08T12:23:07.622Z,88.54
2022-12-08T12:25:35.674Z,88.69
2022-12-08T12:28:07.308Z,88.33
2022-12-08T12:30:52.673Z,88.47
2022-12-08T12:33:20.609Z,88.49
2022-12-08T12:35:48.371Z,88.36
2022-12-08T12:38:41.084Z,88.67
2022-12-08T12:41:08.358Z,88.60
2022-12-08T12:43:38.255Z,88.37
2022-12-08T12:46:39.170Z,88.68
2022-12-08T12:49:43.965Z,88.55
2022-12-08T12:52:10.615Z,88.54
2022-12-08T12:54:42.499Z,88.67
2022-12-08T12:57:09.328Z,88.81
2022-12-08T12:59:55.122Z,88.96
2022-12-08T13:02:23.307Z,88.97
2022-12-08T13:05:01.744Z,88.70
2022-12-08T13:07:34.788Z,89.03
2022-12-08T13:10:17.918Z,88.79
2022-12-08T13:12:46.549Z,89.02
2022-12-08T13:15:19.735Z,89.12
2022-12-08T13:17:47.329Z,88.91
2022-12-08T13:20:23.611Z,89.31
2022-12-08T13:23:13.568Z,89.06
2022-12-08T13:25:40.232Z,89.18
2022-12-08T13:28:15.992Z,89.15
2022-12-08T13:30:46.952Z,89.30
2022-12-08T13:33:30.856Z,89.39
2022-12-08T13:36:05.520Z,89.34
2022-12-08T13:38:35.578Z,89.60
2022-12-08T13:41:07.037Z,89.31
2022-12-08T13:44:31.222Z,89.54
2022-12-08T13:47:16.700Z,89.47
2022-12-08T13:54:16.305Z,89.53
2022-12-08T13:58:45.523Z,89.49
2022-12-08T14:01:16.266Z,89.64
2022-12-08T14:04:12.849Z,89.57
2022-12-08T14:06:43.147Z,89.70
2022-12-08T14:09:21.634Z,89.54
2022-12-08T14:11:54.588Z,89.66
2022-12-08T14:15:00.620Z,89.50
2022-12-08T14:17:21.906Z,89.61
2022-12-08T14:20:01.364Z,89.75
2022-12-08T14:22:36.506Z,89.53
2022-12-08T14:25:04.723Z,89.66
2022-12-08T14:27:36.719Z,89.45
2022-12-08T14:30:13.487Z,89.63
2022-12-08T14:32:44.522Z,89.80
2022-12-08T14:35:11.153Z,89.45
2022-12-08T14:37:41.648Z,89.80
2022-12-08T14:40:29.945Z,89.53
2022-12-08T14:43:09.001Z,89.90
2022-12-08T14:45:45.166Z,89.73
2022-12-08T14:48:30.872Z,89.84
2022-12-08T14:51:03.249Z,89.84
2022-12-08T14:53:41.814Z,89.85
2022-12-08T14:56:38.660Z,89.86
2022-12-08T14:59:07.819Z,89.64
2022-12-08T15:01:35.180Z,89.56
2022-12-08T15:04:17.219Z,89.67
2022-12-08T15:06:49.774Z,89.56
2022-12-08T15:09:37.577Z,89.72
2022-12-08T15:12:26.361Z,89.24
2022-12-08T15:14:57.668Z,89.59
2022-12-08T15:17:36.074Z,89.46
2022-12-08T15:20:04.489Z,89.81
2022-12-08T15:22:31.794Z,89.43
2022-12-08T15:24:58.724Z,89.37
2022-12-08T15:27:25.749Z,89.75
2022-12-08T15:29:52.956Z,89.66
2022-12-08T15:32:22.491Z,89.57
2022-12-08T15:34:49.937Z,89.75
2022-12-08T15:37:22.541Z,89.56
2022-12-08T15:39:49.372Z,89.79
2022-12-08T15:42:16.204Z,89.51
2022-12-08T15:44:43.203Z,90.02
2022-12-08T15:47:15.730Z,89.67
2022-12-08T15:49:42.531Z,89.99
2022-12-08T15:52:18.313Z,89.76
2022-12-08T15:54:45.090Z,89.91
2022-12-08T15:57:53.402Z,89.68
2022-12-08T16:00:50.515Z,89.95
2022-12-08T16:03:59.382Z,89.80
2022-12-08T16:09:06.124Z,90.09
2022-12-08T16:12:06.566Z,90.06
2022-12-08T16:17:21.636Z,90.15
2022-12-08T16:19:49.178Z,89.81
2022-12-08T16:25:18.301Z,89.70
2022-12-08T16:30:33.607Z,89.90
2022-12-08T16:33:00.273Z,90.00
2022-12-08T16:35:26.945Z,89.97
2022-12-08T16:37:53.649Z,90.20
2022-12-08T16:40:20.397Z,89.82
2022-12-08T16:42:48.643Z,89.77
2022-12-08T16:45:29.611Z,89.93
2022-12-08T16:48:01.147Z,90.18
2022-12-08T16:50:33.982Z,90.04
2022-12-08T16:53:06.338Z,90.00
2022-12-08T16:55:34.202Z,90.02
2022-12-08T16:58:02.739Z,90.20
2022-12-08T17:00:30.949Z,89.98
2022-12-08T17:02:59.028Z,90.16
2022-12-08T17:05:26.043Z,89.83
2022-12-08T17:07:53.436Z,90.01
2022-12-08T17:10:24.294Z,89.68
2022-12-08T17:12:50.889Z,89.64
2022-12-08T17:15:21.059Z,89.85
2022-12-08T17:17:48.207Z,90.04
2022-12-08T17:20:21.290Z,89.78
2022-12-08T17:22:48.249Z,89.83
2022-12-08T17:25:15.040Z,89.82
2022-12-08T17:27:42.313Z,89.78
2022-12-08T17:30:11.804Z,89.67
2022-12-08T17:32:39.135Z,89.77
2022-12-08T17:35:06.632Z,89.80
2022-12-08T17:37:33.732Z,89.54
2022-12-08T17:40:00.678Z,89.67
2022-12-08T17:42:27.451Z,89.58
2022-12-08T17:44:54.625Z,89.65
2022-12-08T17:47:22.016Z,89.68
2022-12-08T17:49:48.798Z,89.60
2022-12-08T17:52:15.621Z,89.54
2022-12-08T17:54:42.368Z,89.69
2022-12-08T17:57:11.780Z,89.41
2022-12-08T17:59:38.470Z,89.67
2022-12-08T18:02:05.551Z,89.35
2022-12-08T18:04:32.336Z,89.55
2022-12-08T18:07:01.382Z,89.62
2022-12-08T18:09:30.096Z,89.61
2022-12-08T18:11:56.953Z,89.49
2022-12-08T18:14:23.687Z,89.39
2022-12-08T18:16:50.461Z,89.53
2022-12-08T18:19:17.316Z,89.40
2022-12-08T18:21:44.437Z,89.53
2022-12-08T18:24:22.360Z,89.32
2022-12-08T18:26:52.169Z,89.36
2022-12-08T18:29:20.295Z,89.40
2022-12-08T18:31:47.135Z,89.72
2022-12-08T18:34:13.943Z,89.57
2022-12-08T18:36:40.693Z,89.68
2022-12-08T18:39:11.035Z,89.68
2022-12-08T18:41:37.834Z,89.23
2022-12-08T18:44:04.763Z,89.33
2022-12-08T18:46:31.912Z,89.50
2022-12-08T18:48:59.539Z,89.28
2022-12-08T18:51:26.390Z,89.30
2022-12-08T18:53:53.522Z,89.36
2022-12-08T18:56:26.106Z,89.31
2022-12-08T18:58:57.365Z,89.51
2022-12-08T19:01:28.974Z,89.63
2022-12-08T19:04:26.898Z,89.30
2022-12-08T19:06:44.372Z,89.42
2022-12-08T19:09:15.954Z,89.19
2022-12-08T19:11:42.884Z,89.41
2022-12-08T19:14:10.078Z,89.43
2022-12-08T19:16:37.148Z,89.55
2022-12-08T19:19:04.482Z,89.29
2022-12-08T19:21:32.011Z,89.45
2022-12-08T19:24:00.072Z,89.60
2022-12-08T19:26:29.388Z,89.71
2022-12-08T19:28:56.368Z,89.49
2022-12-08T19:31:23.121Z,89.73
2022-12-08T19:33:50.001Z,89.33
2022-12-08T19:36:19.186Z,89.51
2022-12-08T19:39:04.600Z,89.49
2022-12-08T19:41:50.432Z,89.11
2022-12-08T19:44:19.509Z,89.41
2022-12-08T19:46:46.266Z,89.04
2022-12-08T19:49:13.031Z,88.98
2022-12-08T19:51:39.798Z,89.12
2022-12-08T19:54:06.578Z,89.12
2022-12-08T19:56:33.503Z,89.19
2022-12-08T19:59:00.232Z,89.06
2022-12-08T20:01:27.051Z,88.85
2022-12-08T20:03:53.947Z,88.76
2022-12-08T20:06:20.905Z,88.88
2022-12-08T20:08:50.555Z,88.71
2022-12-08T20:11:17.756Z,88.42
2022-12-08T20:13:45.868Z,88.65
2022-12-08T20:16:12.772Z,88.59
2022-12-08T20:18:40.551Z,88.33
2022-12-08T20:21:07.618Z,88.23
2022-12-08T20:23:34.774Z,88.06
2022-12-08T20:26:07.469Z,88.20
2022-12-08T20:28:35.120Z,88.07
2022-12-08T20:31:02.276Z,87.74
2022-12-08T20:33:29.164Z,87.84
2022-12-08T20:36:00.511Z,87.57
2022-12-08T20:38:28.227Z,87.58
2022-12-08T20:40:55.305Z,87.68
2022-12-08T20:43:22.213Z,87.53
2022-12-08T20:45:48.866Z,87.68
2022-12-08T20:48:15.681Z,87.68
2022-12-08T20:50:42.612Z,87.72
2022-12-08T20:53:09.528Z,87.75
2022-12-08T20:55:36.808Z,87.49
2022-12-08T20:58:03.773Z,87.53
2022-12-08T21:00:30.753Z,87.57
2022-12-08T21:02:57.711Z,87.41
2022-12-08T21:05:24.798Z,87.36
2022-12-08T21:07:51.897Z,87.37
2022-12-08T21:10:18.855Z,87.22
2022-12-08T21:12:45.756Z,87.29
2022-12-08T21:15:12.866Z,87.19
2022-12-08T21:17:39.893Z,87.05
2022-12-08T21:20:07.887Z,87.23
2022-12-08T21:22:34.756Z,86.83
2022-12-08T21:25:01.618Z,87.03
2022-12-08T21:27:28.437Z,86.83
2022-12-08T21:29:56.289Z,86.98
2022-12-08T21:32:30.289Z,87.24
2022-12-08T21:34:57.631Z,87.04
2022-12-08T21:37:24.604Z,86.94
2022-12-08T21:39:51.812Z,86.86
2022-12-08T21:42:37.481Z,86.98
2022-12-08T21:45:04.832Z,86.87
2022-12-08T21:47:31.676Z,87.08
2022-12-08T21:49:58.467Z,87.20
2022-12-08T21:52:25.369Z,87.40
2022-12-08T21:54:52.160Z,86.90
2022-12-08T21:57:19.334Z,86.96
2022-12-08T21:59:46.240Z,87.10
2022-12-08T22:02:16.818Z,86.89
2022-12-08T22:04:50.154Z,87.28
2022-12-08T22:07:17.106Z,87.02
2022-12-08T22:09:48.343Z,87.18
2022-12-08T22:12:16.875Z,86.99
2022-12-08T22:14:44.172Z,87.05
2022-12-08T22:17:11.216Z,87.30
2022-12-08T22:19:38.202Z,87.11
2022-12-08T22:22:08.720Z,87.36
2022-12-08T22:24:42.481Z,87.17
2022-12-08T22:27:13.604Z,87.52
2022-12-08T22:29:47.665Z,87.45
2022-12-08T22:32:20.499Z,87.27
2022-12-08T22:34:48.509Z,87.57
2022-12-08T22:37:16.423Z,87.30
2022-12-08T22:39:45.005Z,87.52
2022-12-08T22:42:13.526Z,87.41
2022-12-08T22:44:42.137Z,87.27
2022-12-08T22:47:10.910Z,87.50
2022-12-08T22:49:39.828Z,87.49
2022-12-08T22:52:19.283Z,87.42
2022-12-08T22:54:46.893Z,87.46
2022-12-08T22:57:16.638Z,87.50
2022-12-08T22:59:45.161Z,87.44
2022-12-08T23:02:15.492Z,87.45
2022-12-08T23:04:43.777Z,87.30
2022-12-08T23:07:15.310Z,87.13
2022-12-08T23:09:46.428Z,87.19
2022-12-08T23:12:14.557Z,87.27
2022-12-08T23:14:55.952Z,87.43
2022-12-08T23:17:33.901Z,87.33
2022-12-08T23:20:02.309Z,87.33
2022-12-08T23:22:33.317Z,87.50
2022-12-08T23:25:00.844Z,87.28
2022-12-08T23:27:27.579Z,87.34
2022-12-08T23:29:54.260Z,87.16
2022-12-08T23:32:21.300Z,87.06
2022-12-08T23:34:48.416Z,87.10
2022-12-08T23:37:15.403Z,87.17
2022-12-08T23:39:42.265Z,87.26
2022-12-08T23:42:09.010Z,87.42
2022-12-08T23:44:36.231Z,87.21
2022-12-08T23:47:03.305Z,87.07
2022-12-08T23:49:30.314Z,87.34
2022-12-08T23:51:57.218Z,87.02
2022-12-08T23:54:24.003Z,87.13
2022-12-08T23:56:51.126Z,87.43
2022-12-08T23:59:17.860Z,87.33
